createdAt,value
2019-02-21T16:54:24.836Z,43.80
2019-02-21T16:56:53.337Z,43.60
2019-02-21T16:59:21.847Z,43.49
2019-02-21T17:01:50.396Z,43.53
2019-02-21T17:04:18.936Z,43.43
2019-02-21T17:06:47.404Z,43.56
2019-02-21T17:09:15.958Z,43.57
2019-02-21T17:11:44.459Z,43.62
2019-02-21T17:14:12.958Z,43.70
2019-02-21T17:16:41.567Z,43.74
2019-02-21T17:19:10.096Z,43.92
2019-02-21T17:21:38.606Z,44.10
2019-02-21T17:24:07.177Z,43.99
2019-02-21T17:26:35.682Z,43.93
2019-02-21T17:29:04.199Z,44.11
2019-02-21T17:31:32.774Z,44.43
2019-02-21T17:34:01.277Z,44.41
2019-02-21T17:36:29.779Z,44.34
2019-02-21T17:38:58.318Z,44.25
2019-02-21T17:41:26.856Z,44.53
2019-02-21T17:43:55.352Z,44.80
2019-02-21T17:46:23.899Z,44.41
2019-02-21T17:48:52.406Z,44.58
2019-02-21T17:51:20.905Z,44.78
2019-02-21T17:53:49.531Z,45.16
2019-02-21T17:56:18.288Z,45.48
2019-02-21T17:58:46.799Z,45.61
2019-02-21T18:01:15.363Z,45.89
2019-02-21T18:03:43.868Z,45.72
2019-02-21T18:06:12.371Z,45.99
2019-02-21T18:08:40.915Z,46.03
2019-02-21T18:11:09.429Z,46.28
2019-02-21T18:13:37.929Z,46.44
2019-02-21T18:16:06.537Z,46.24
2019-02-21T18:18:35.026Z,46.42
2019-02-21T18:21:03.523Z,46.43
2019-02-21T18:23:32.073Z,46.54
2019-02-21T18:26:03.709Z,46.66
2019-02-21T18:28:32.217Z,46.72
2019-02-21T18:31:00.773Z,46.36
2019-02-21T18:33:29.274Z,46.73
2019-02-21T18:35:57.780Z,47.03
2019-02-21T18:38:26.336Z,46.88
2019-02-21T18:40:54.935Z,47.13
2019-02-21T18:43:23.424Z,47.13
2019-02-21T18:45:51.973Z,47.16
2019-02-21T18:48:20.475Z,47.51
2019-02-21T18:50:49.029Z,47.51
2019-02-21T18:53:17.570Z,47.50
2019-02-21T18:55:46.086Z,47.55
2019-02-21T18:58:14.590Z,47.49
2019-02-21T19:00:43.160Z,47.76
2019-02-21T19:03:11.666Z,47.72
2019-02-21T19:05:40.219Z,48.11
2019-02-21T19:08:08.765Z,47.97
2019-02-21T19:10:37.510Z,48.05
2019-02-21T19:13:07.808Z,48.19
2019-02-21T19:15:36.758Z,48.78
2019-02-21T19:18:05.280Z,48.86
2019-02-21T19:20:33.782Z,48.86
2019-02-21T19:23:02.343Z,49.27
2019-02-21T19:25:30.853Z,49.61
2019-02-21T19:27:59.402Z,49.48
2019-02-21T19:30:39.979Z,49.60
2019-02-21T19:33:08.477Z,49.31
2019-02-21T19:35:36.979Z,49.25
2019-02-21T19:38:10.322Z,49.21
2019-02-21T19:40:35.780Z,49.27
2019-02-21T19:43:04.256Z,49.17
2019-02-21T19:45:32.806Z,49.28
2019-02-21T19:48:03.917Z,50.00
2019-02-21T19:50:31.545Z,50.47
2019-02-21T19:53:00.103Z,50.50
2019-02-21T19:55:28.607Z,50.74
2019-02-21T19:57:57.103Z,50.68
2019-02-21T20:00:27.779Z,50.69
2019-02-21T20:02:56.286Z,50.57
2019-02-21T20:05:24.797Z,50.12
2019-02-21T20:07:53.432Z,49.98
2019-02-21T20:10:21.951Z,50.24
2019-02-21T20:12:50.462Z,50.32
2019-02-21T20:15:19.022Z,50.36
2019-02-21T20:17:47.525Z,50.14
2019-02-21T20:20:26.922Z,50.38
2019-02-21T20:22:55.432Z,50.55
2019-02-21T20:25:23.944Z,50.55
2019-02-21T20:27:52.491Z,50.67
2019-02-21T20:30:20.998Z,50.56
2019-02-21T20:32:49.503Z,50.48
2019-02-21T20:35:18.084Z,50.33
2019-02-21T20:37:46.596Z,50.24
2019-02-21T20:40:15.093Z,50.19
2019-02-21T20:42:43.654Z,50.14
2019-02-21T20:45:15.327Z,50.35
2019-02-21T20:47:43.833Z,50.56
2019-02-21T20:50:15.333Z,50.41
2019-02-21T20:52:43.831Z,50.73
2019-02-21T20:55:12.340Z,50.77
2019-02-21T20:57:40.893Z,50.92
2019-02-21T21:00:12.196Z,51.17
2019-02-21T21:02:40.711Z,51.43
2019-02-21T21:05:09.259Z,51.32
2019-02-21T21:07:37.778Z,51.44
2019-02-21T21:10:09.441Z,51.27
2019-02-21T21:12:38.009Z,50.77
2019-02-21T21:15:09.531Z,50.90
2019-02-21T21:17:38.271Z,51.03
2019-02-21T21:20:16.563Z,51.58
2019-02-21T21:22:39.692Z,51.94
2019-02-21T21:25:10.936Z,51.69
2019-02-21T21:27:39.480Z,51.84
2019-02-21T21:30:10.491Z,52.31
2019-02-21T21:32:38.990Z,51.74
2019-02-21T21:35:07.562Z,51.93
2019-02-21T21:37:36.067Z,51.93
2019-02-21T21:40:07.026Z,51.82
2019-02-21T21:42:35.608Z,51.75
2019-02-21T21:45:05.412Z,52.01
2019-02-21T21:47:33.918Z,52.19
2019-02-21T21:50:02.474Z,52.27
2019-02-21T21:52:30.982Z,52.57
2019-02-21T21:54:59.491Z,52.70
2019-02-21T21:57:28.047Z,52.43
2019-02-21T21:59:56.599Z,51.88
2019-02-21T22:02:25.056Z,51.26
2019-02-21T22:04:53.561Z,51.20
2019-02-21T22:07:22.062Z,50.92
2019-02-21T22:09:54.006Z,51.17
2019-02-21T22:12:22.557Z,50.97
2019-02-21T22:14:51.084Z,50.55
2019-02-21T22:17:19.613Z,50.12
2019-02-21T22:19:48.138Z,50.69
2019-02-21T22:22:16.695Z,50.65
2019-02-21T22:24:45.212Z,51.06
2019-02-21T22:27:13.731Z,50.97
2019-02-21T22:29:42.272Z,51.10
2019-02-21T22:32:10.789Z,50.34
2019-02-21T22:34:39.344Z,50.28
2019-02-21T22:37:07.871Z,50.18
2019-02-21T22:39:36.385Z,50.65
2019-02-21T22:42:04.906Z,50.62
2019-02-21T22:44:33.432Z,50.60
2019-02-21T22:47:02.001Z,50.40
2019-02-21T22:49:30.526Z,50.45
2019-02-21T22:51:59.044Z,50.09
2019-02-21T22:54:27.566Z,50.10
2019-02-21T22:56:56.076Z,50.39
2019-02-21T22:59:24.656Z,50.06
2019-02-21T23:01:53.161Z,49.99
2019-02-21T23:04:24.451Z,49.50
2019-02-21T23:06:59.202Z,49.39
2019-02-21T23:09:28.269Z,49.90
2019-02-21T23:11:57.064Z,49.58
2019-02-21T23:14:25.607Z,50.26
2019-02-21T23:16:54.110Z,50.90
2019-02-21T23:19:24.200Z,50.99
2019-02-21T23:21:52.834Z,50.89
2019-02-21T23:24:21.333Z,51.46
2019-02-21T23:26:49.884Z,51.19
2019-02-21T23:29:18.391Z,50.88
2019-02-21T23:31:46.886Z,51.40
2019-02-21T23:34:20.108Z,51.41
2019-02-21T23:36:48.650Z,51.61
2019-02-21T23:39:17.155Z,51.46
2019-02-21T23:41:45.668Z,51.86
2019-02-21T23:44:14.173Z,51.67
2019-02-21T23:46:42.736Z,51.98
2019-02-21T23:49:11.236Z,52.04
2019-02-21T23:51:39.736Z,52.86
2019-02-21T23:54:08.266Z,52.96
2019-02-21T23:56:36.752Z,52.99
2019-02-21T23:59:05.297Z,53.18
